Gaso Freyja — LDZS — position and weather

sailwx.info

Track history (hours):
 
Tides and Currents Weather Stations Pressure Air Temp Water Temp Dewpoint Dewpoint Depression Visibility Wind Speed Wind Dir Waves Ship Positions

Gaso Freyja

Last reported at 2018-Jun-25 08:00 UTC. Time now 2018-Jun-25 08:12 UTC.
Position N 64°17' E 010°18'.

Length 85 m.

Type: Cargo ship. MMSI: 257252000.

Date/timePositionNaut miles runAvg speedWind from/ knotsBaromVisibWave heightAir tempDewpointWater temp
2018-Jun-25 08:00N 64°17' E 010°18'0 0.0
2018-Jun-25 07:30N 64°17' E 010°18'0 0.0
2018-Jun-25 07:00N 64°17' E 010°18'0 0.0
2018-Jun-25 06:30N 64°17' E 010°18'0 0.0
2018-Jun-25 05:59N 64°17' E 010°18'0 0.0
2018-Jun-25 05:29N 64°17' E 010°18'0 0.0
2018-Jun-25 04:59N 64°17' E 010°18'1 1.4
2018-Jun-25 04:31N 64°17' E 010°19'1 2.4
2018-Jun-25 03:59N 64°15' E 010°20'0 0.0
2018-Jun-25 03:30N 64°15' E 010°20'0 0.0
2018-Jun-25 03:00N 64°15' E 010°20'0 0.0
2018-Jun-25 02:29N 64°15' E 010°20'0 0.0
2018-Jun-25 02:00N 64°15' E 010°20'0 0.0
2018-Jun-25 01:30N 64°15' E 010°20'0 0.0
2018-Jun-25 01:00N 64°15' E 010°20'0 0.0
2018-Jun-25 00:30N 64°15' E 010°20'0 0.0
2018-Jun-24 23:58N 64°15' E 010°20'0 0.0
2018-Jun-24 23:30N 64°15' E 010°20'0 0.0
2018-Jun-24 22:59N 64°15' E 010°20'0 0.0
2018-Jun-24 22:29N 64°15' E 010°20'0 0.0
2018-Jun-24 22:00N 64°15' E 010°20'0 0.0
2018-Jun-24 21:30N 64°15' E 010°20'0 0.0
2018-Jun-24 21:00N 64°15' E 010°20'0 0.0
2018-Jun-24 20:30N 64°15' E 010°20'0 0.0
2018-Jun-24 19:59N 64°15' E 010°20'0 0.0
2018-Jun-24 19:30N 64°15' E 010°20'0 0.0
2018-Jun-24 19:00N 64°15' E 010°20'0 0.0
2018-Jun-24 18:30N 64°15' E 010°20'0 0.0
2018-Jun-24 17:58N 64°15' E 010°20'0 0.0
2018-Jun-24 17:25N 64°15' E 010°20'0 0.0
2018-Jun-24 16:59N 64°15' E 010°20'0 0.0
2018-Jun-24 16:30N 64°15' E 010°20'0 0.5
2018-Jun-24 15:57N 64°15' E 010°20'5 9.7
2018-Jun-24 15:29N 64°12' E 010°11'612.5
2018-Jun-24 15:00N 64°07' E 010°04'612.7
2018-Jun-24 14:31N 64°04' E 009°52'612.7
2018-Jun-24 14:00N 64°01' E 009°39'612.4
2018-Jun-24 13:30N 63°57' E 009°27'612.6
2018-Jun-24 13:00N 63°53' E 009°16'612.7
2018-Jun-24 12:30N 63°49' E 009°05'612.3
2018-Jun-24 12:00N 63°46' E 008°53'2 4.0
2018-Jun-24 11:30N 63°44' E 008°50'0 0.0
2018-Jun-24 11:00N 63°44' E 008°50'0 0.0
2018-Jun-24 10:30N 63°44' E 008°50'0 0.0
2018-Jun-24 09:58N 63°44' E 008°50'0 0.0
2018-Jun-24 09:28N 63°44' E 008°50'0 0.0
2018-Jun-24 08:58N 63°44' E 008°50'0 0.0
2018-Jun-24 08:28N 63°44' E 008°50'0 0.0
2018-Jun-24 08:01N 63°44' E 008°50'0 0.0
2018-Jun-24 07:28N 63°44' E 008°50'0 0.0
2018-Jun-24 06:58N 63°44' E 008°50'0 0.0
2018-Jun-24 06:28N 63°44' E 008°50'0 0.0
2018-Jun-24 05:58N 63°44' E 008°50'0 0.0
2018-Jun-24 05:31N 63°44' E 008°50'0 0.0
2018-Jun-24 04:58N 63°44' E 008°50'0 0.0
2018-Jun-24 04:28N 63°44' E 008°50'0 0.0
2018-Jun-24 03:58N 63°44' E 008°50'0 0.0
2018-Jun-24 03:28N 63°44' E 008°50'0 0.0
2018-Jun-24 02:58N 63°44' E 008°50'0 0.0
2018-Jun-24 02:28N 63°44' E 008°50'0 0.0
2018-Jun-24 01:58N 63°44' E 008°50'0 0.0
2018-Jun-24 01:28N 63°44' E 008°50'0 0.0
2018-Jun-24 00:58N 63°44' E 008°50'0 0.0
2018-Jun-24 00:28N 63°44' E 008°50'0 0.0
2018-Jun-23 23:58N 63°44' E 008°50'0 0.0
2018-Jun-23 23:28N 63°44' E 008°50'0 0.0
2018-Jun-23 22:58N 63°44' E 008°50'0 0.0
2018-Jun-23 22:28N 63°44' E 008°50'0 0.0
2018-Jun-23 21:58N 63°44' E 008°50'0 0.0
2018-Jun-23 21:28N 63°44' E 008°50'0 0.0
2018-Jun-23 20:58N 63°44' E 008°50'0 0.0
2018-Jun-23 20:28N 63°44' E 008°50'0 0.0
2018-Jun-23 19:58N 63°44' E 008°50'0 0.0
2018-Jun-23 19:25N 63°44' E 008°50'0 0.0
2018-Jun-23 18:58N 63°44' E 008°50'0 0.0
2018-Jun-23 18:28N 63°44' E 008°50'0 0.0
2018-Jun-23 17:58N 63°44' E 008°50'0 0.0
2018-Jun-23 17:25N 63°44' E 008°50'0 0.0
2018-Jun-23 16:58N 63°44' E 008°50'0 0.0
2018-Jun-23 16:28N 63°44' E 008°50'0 0.0
2018-Jun-23 15:58N 63°44' E 008°50'0 0.0
2018-Jun-23 15:28N 63°44' E 008°50'0 0.0
2018-Jun-23 14:58N 63°44' E 008°50'0 0.0
2018-Jun-23 14:31N 63°44' E 008°50'0 0.0
2018-Jun-23 13:58N 63°44' E 008°50'0 0.0
2018-Jun-23 13:31N 63°44' E 008°50'0 0.0
2018-Jun-23 12:58N 63°44' E 008°50'0 0.0
2018-Jun-23 12:28N 63°44' E 008°50'0 0.0
2018-Jun-23 11:58N 63°44' E 008°50'0 0.0
2018-Jun-23 11:28N 63°44' E 008°50'0 0.0
2018-Jun-23 10:58N 63°44' E 008°50'0 0.0
2018-Jun-23 10:28N 63°44' E 008°50'0 0.0
2018-Jun-23 09:58N 63°44' E 008°50'0 0.0
2018-Jun-23 09:28N 63°44' E 008°50'0 0.0
2018-Jun-23 08:58N 63°44' E 008°50'0 0.0
2018-Jun-23 08:28N 63°44' E 008°50'0 0.0
2018-Jun-23 07:58N 63°44' E 008°50'0 0.0
2018-Jun-23 07:28N 63°44' E 008°50'0 0.0
2018-Jun-23 06:58N 63°44' E 008°50'0 0.0
2018-Jun-23 06:28N 63°44' E 008°50'0 0.0
2018-Jun-23 05:58N 63°44' E 008°50'0 0.0
2018-Jun-23 05:28N 63°44' E 008°50'0 0.0
2018-Jun-23 04:58N 63°44' E 008°50'0 0.0
2018-Jun-23 04:28N 63°44' E 008°50'0 0.0
2018-Jun-23 04:01N 63°44' E 008°50'0 0.0
2018-Jun-23 03:28N 63°44' E 008°50'0 0.0
2018-Jun-23 03:01N 63°44' E 008°50'0 0.0
2018-Jun-23 02:28N 63°44' E 008°50'0 0.0
2018-Jun-23 01:58N 63°44' E 008°50'0 0.0
2018-Jun-23 01:28N 63°44' E 008°50'0 0.0
2018-Jun-23 00:58N 63°44' E 008°50'0 0.0
2018-Jun-23 00:31N 63°44' E 008°50'0 0.0
2018-Jun-22 23:58N 63°44' E 008°50'0 0.0
2018-Jun-22 23:28N 63°44' E 008°50'0 0.0
2018-Jun-22 23:01N 63°44' E 008°50'0 0.0
2018-Jun-22 22:28N 63°44' E 008°50'0 0.0
2018-Jun-22 22:01N 63°44' E 008°50'0 0.0
2018-Jun-22 21:28N 63°44' E 008°50'0 0.0
2018-Jun-22 20:58N 63°44' E 008°50'0 0.0
2018-Jun-22 20:28N 63°44' E 008°50'0 0.0
2018-Jun-22 19:58N 63°44' E 008°50'0 0.0
2018-Jun-22 19:28N 63°44' E 008°50'0 0.0
2018-Jun-22 18:58N 63°44' E 008°50'0 0.0
2018-Jun-22 18:28N 63°44' E 008°50'0 0.0
2018-Jun-22 17:55N 63°44' E 008°50'0 0.0
2018-Jun-22 17:28N 63°44' E 008°50'0 0.0
2018-Jun-22 16:58N 63°44' E 008°50'0 0.0
2018-Jun-22 16:28N 63°44' E 008°50'0 0.0
2018-Jun-22 15:58N 63°44' E 008°50'0 0.0
2018-Jun-22 15:28N 63°44' E 008°50'0 0.0
2018-Jun-22 14:58N 63°44' E 008°50'0 0.0
2018-Jun-22 14:28N 63°44' E 008°50'0 0.0
2018-Jun-22 13:58N 63°44' E 008°50'0 0.0
2018-Jun-22 13:28N 63°44' E 008°50'0 0.0
2018-Jun-22 12:58N 63°44' E 008°50'0 0.0
2018-Jun-22 12:28N 63°44' E 008°50'0 0.0
2018-Jun-22 11:58N 63°44' E 008°50'0 0.0
2018-Jun-22 11:25N 63°44' E 008°50'0 0.0
2018-Jun-22 10:58N 63°44' E 008°50'0 0.0
2018-Jun-22 10:28N 63°44' E 008°50'0 0.0
2018-Jun-22 09:58N 63°44' E 008°50'0 0.0
2018-Jun-22 09:28N 63°44' E 008°50'0 0.0
2018-Jun-22 08:58N 63°44' E 008°50'0 0.0
2018-Jun-22 08:28N 63°44' E 008°50'0 0.0
2018-Jun-22 07:58N 63°44' E 008°50'0 0.0
2018-Jun-22 07:28N 63°44' E 008°50'0 0.0
2018-Jun-22 06:58N 63°44' E 008°50'0 0.0
2018-Jun-22 06:28N 63°44' E 008°50'0 0.0
2018-Jun-22 05:58N 63°44' E 008°50'0 0.0
2018-Jun-22 05:28N 63°44' E 008°50'0 0.0
2018-Jun-22 05:01N 63°44' E 008°50'0 0.0
2018-Jun-22 04:28N 63°44' E 008°50'0 0.0
2018-Jun-22 03:58N 63°44' E 008°50'0 0.0
2018-Jun-22 03:31N 63°44' E 008°50'0 0.0
2018-Jun-22 02:58N 63°44' E 008°50'0 0.0
2018-Jun-22 02:28N 63°44' E 008°50'0 0.0
2018-Jun-22 01:58N 63°44' E 008°50'0 0.0
2018-Jun-22 01:28N 63°44' E 008°50'0 0.0
2018-Jun-22 00:58N 63°44' E 008°50'0 0.0
2018-Jun-22 00:28N 63°44' E 008°50'0 0.0
2018-Jun-21 23:58N 63°44' E 008°50'0 0.0
2018-Jun-21 23:28N 63°44' E 008°50'0 0.0
2018-Jun-21 22:58N 63°44' E 008°50'0 0.0
2018-Jun-21 22:29N 63°44' E 008°50'1 2.3
2018-Jun-21 22:00N 63°43' E 008°51'3 6.9
2018-Jun-21 21:30N 63°41' E 008°57'1 1.6
2018-Jun-21 21:00N 63°40' E 008°58'0 0.4
2018-Jun-21 20:30N 63°40' E 008°57'0 0.4
2018-Jun-21 20:00N 63°40' E 008°57'0 0.6
2018-Jun-21 19:30N 63°41' E 008°57'0 0.7
2018-Jun-21 19:00N 63°41' E 008°56'0 0.9
2018-Jun-21 18:30N 63°41' E 008°55'1 1.2
2018-Jun-21 18:00N 63°41' E 008°54'2 4.5
2018-Jun-21 17:30N 63°40' E 008°49'3 6.0
2018-Jun-21 17:00N 63°40' E 008°42'3 6.1
2018-Jun-21 16:30N 63°39' E 008°36'2 4.4
2018-Jun-21 15:58N 63°39' E 008°31'2 3.3
2018-Jun-21 15:29N 63°38' E 008°28'1 3.1
2018-Jun-21 15:00N 63°36' E 008°29'0 0.0
2018-Jun-21 14:30N 63°36' E 008°29'0 0.0
2018-Jun-21 14:00N 63°36' E 008°29'0 0.0
2018-Jun-21 13:30N 63°36' E 008°29'0 0.0
2018-Jun-21 13:00N 63°36' E 008°29'0 0.0
2018-Jun-21 12:30N 63°36' E 008°29'0 0.0
2018-Jun-21 12:00N 63°36' E 008°29'0 0.2
2018-Jun-21 11:29N 63°36' E 008°29'0 0.0
2018-Jun-21 11:00N 63°36' E 008°29'0 0.0
2018-Jun-21 10:30N 63°36' E 008°29'0 0.0
2018-Jun-21 10:00N 63°36' E 008°29'0 0.1
2018-Jun-21 09:29N 63°36' E 008°29'0 0.0
2018-Jun-21 09:00N 63°36' E 008°29'0 0.0
2018-Jun-21 08:30N 63°36' E 008°29'0 0.0
2018-Jun-21 08:00N 63°36' E 008°29'0 0.1
2018-Jun-21 07:30N 63°36' E 008°29'0 0.0
2018-Jun-21 07:00N 63°36' E 008°29'0 0.0
2018-Jun-21 06:30N 63°36' E 008°29'0 0.0
2018-Jun-21 06:00N 63°36' E 008°29'0 0.0
2018-Jun-21 05:29N 63°36' E 008°29'0 0.1
2018-Jun-21 05:00N 63°36' E 008°29'0 0.0
2018-Jun-21 04:29N 63°36' E 008°29'0 0.0
2018-Jun-21 04:00N 63°36' E 008°29'0 0.0
2018-Jun-21 03:30N 63°36' E 008°29'0 0.1
2018-Jun-21 03:00N 63°36' E 008°29'0 0.0
2018-Jun-21 02:30N 63°36' E 008°29'0 0.0
2018-Jun-21 02:00N 63°36' E 008°29'0 0.0
2018-Jun-21 01:30N 63°36' E 008°29'0 0.0
2018-Jun-21 01:00N 63°36' E 008°29'0 0.0
2018-Jun-21 00:30N 63°36' E 008°29'0 0.1
2018-Jun-21 00:00N 63°36' E 008°29'0 0.0
2018-Jun-20 23:30N 63°36' E 008°29'0 0.0
2018-Jun-20 23:00N 63°36' E 008°29'0 0.0
2018-Jun-20 22:30N 63°36' E 008°29'0 0.0
2018-Jun-20 22:00N 63°36' E 008°29'0 0.0
2018-Jun-20 21:30N 63°36' E 008°29'0 0.0
2018-Jun-20 21:00N 63°36' E 008°29'0 0.0
2018-Jun-20 20:29N 63°36' E 008°29'0 0.0
2018-Jun-20 20:00N 63°36' E 008°29'0 0.2
2018-Jun-20 19:30N 63°36' E 008°29'0 0.0
2018-Jun-20 18:59N 63°36' E 008°29'0 0.0
2018-Jun-20 18:29N 63°36' E 008°29'0 0.0
2018-Jun-20 18:00N 63°36' E 008°29'0 0.0
2018-Jun-20 17:30N 63°36' E 008°29'0 0.0
2018-Jun-20 17:00N 63°36' E 008°29'0 0.0
2018-Jun-20 16:29N 63°36' E 008°29'0 0.0
2018-Jun-20 16:00N 63°36' E 008°29'0 0.1
2018-Jun-20 15:30N 63°36' E 008°29'0 0.0
2018-Jun-20 15:00N 63°36' E 008°29'0 0.0
2018-Jun-20 14:30N 63°36' E 008°29'0 0.0
2018-Jun-20 14:00N 63°36' E 008°29'0 0.0
2018-Jun-20 13:30N 63°36' E 008°29'0 0.0
2018-Jun-20 13:00N 63°36' E 008°29'0 0.0
2018-Jun-20 12:30N 63°36' E 008°29'0 0.8
2018-Jun-20 11:59N 63°37' E 008°30'2 4.6
2018-Jun-20 11:30N 63°39' E 008°32'4 7.9
2018-Jun-20 11:00N 63°40' E 008°40'3 7.2
2018-Jun-20 10:30N 63°40' E 008°48'2 4.8
2018-Jun-20 10:00N 63°43' E 008°51'0 0.0
2018-Jun-20 09:30N 63°43' E 008°51'0 0.0
2018-Jun-20 09:00N 63°43' E 008°51'0 0.0
2018-Jun-20 08:30N 63°43' E 008°51'0 0.0
2018-Jun-20 08:00N 63°43' E 008°51'0 0.0
2018-Jun-20 07:29N 63°43' E 008°51'0 0.0
2018-Jun-20 07:00N 63°43' E 008°51'0 0.0
2018-Jun-20 06:30N 63°43' E 008°51'0 0.0
2018-Jun-20 06:00N 63°43' E 008°51'0 0.0
2018-Jun-20 05:29N 63°43' E 008°51'0 0.0
2018-Jun-20 04:59N 63°43' E 008°51'0 0.0
2018-Jun-20 04:30N 63°43' E 008°51'0 0.0
2018-Jun-20 04:00N 63°43' E 008°51'0 0.0
2018-Jun-20 03:30N 63°43' E 008°51'0 0.0
2018-Jun-20 03:00N 63°43' E 008°51'0 0.0
2018-Jun-20 02:30N 63°43' E 008°51'0 0.0
2018-Jun-20 01:59N 63°43' E 008°51'0 0.0
2018-Jun-20 01:30N 63°43' E 008°51'0 0.0
2018-Jun-20 01:00N 63°43' E 008°51'0 0.0
2018-Jun-20 00:30N 63°43' E 008°51'0 0.0
2018-Jun-19 23:59N 63°43' E 008°51'0 0.0
2018-Jun-19 23:30N 63°43' E 008°51'0 0.0
2018-Jun-19 22:59N 63°43' E 008°51'0 0.0
2018-Jun-19 22:30N 63°43' E 008°51'0 0.0
2018-Jun-19 22:00N 63°43' E 008°51'0 0.0
2018-Jun-19 21:30N 63°43' E 008°51'0 0.0
2018-Jun-19 21:00N 63°43' E 008°51'0 0.0
2018-Jun-19 20:30N 63°43' E 008°51'0 0.0
2018-Jun-19 20:00N 63°43' E 008°51'0 0.0
2018-Jun-19 19:29N 63°43' E 008°51'0 0.0
2018-Jun-19 19:00N 63°43' E 008°51'0 0.0
2018-Jun-19 18:30N 63°43' E 008°51'0 0.0
2018-Jun-19 18:00N 63°43' E 008°51'2 3.2
2018-Jun-19 17:30N 63°44' E 008°50'0 0.0
2018-Jun-19 17:00N 63°44' E 008°50'0 0.0
2018-Jun-19 16:30N 63°44' E 008°50'0 0.0
2018-Jun-19 16:00N 63°44' E 008°50'0 0.0
2018-Jun-19 15:30N 63°44' E 008°50'0 0.0
2018-Jun-19 15:00N 63°44' E 008°50'0 0.0
2018-Jun-19 14:30N 63°44' E 008°50'0 0.0
2018-Jun-19 14:00N 63°44' E 008°50'0 0.0
2018-Jun-19 13:29N 63°44' E 008°50'0 0.0
2018-Jun-19 13:00N 63°44' E 008°50'0 0.0
2018-Jun-19 12:30N 63°44' E 008°50'0 0.0
2018-Jun-19 11:59N 63°44' E 008°50'0 0.0
2018-Jun-19 11:30N 63°44' E 008°50'0 0.0
2018-Jun-19 11:00N 63°44' E 008°50'0 0.0
2018-Jun-19 10:30N 63°44' E 008°50'0 0.0
2018-Jun-19 10:00N 63°44' E 008°50'0 0.0
2018-Jun-19 09:30N 63°44' E 008°50'0 0.0
2018-Jun-19 09:00N 63°44' E 008°50'0 0.0
2018-Jun-19 08:30N 63°44' E 008°50'3 6.0
2018-Jun-19 08:00N 63°41' E 008°50'611.2
2018-Jun-19 07:30N 63°40' E 008°38'5 9.3
2018-Jun-19 07:00N 63°37' E 008°29'1 1.4
2018-Jun-19 06:30N 63°36' E 008°29'0 0.0
2018-Jun-19 06:00N 63°36' E 008°29'0 0.0
2018-Jun-19 05:30N 63°36' E 008°29'0 0.0
2018-Jun-19 05:00N 63°36' E 008°29'0 0.0
2018-Jun-19 04:29N 63°36' E 008°29'0 0.0
2018-Jun-19 03:59N 63°36' E 008°29'0 0.0
2018-Jun-19 03:30N 63°36' E 008°29'0 0.1
2018-Jun-19 03:00N 63°36' E 008°29'0 0.0
2018-Jun-19 02:30N 63°36' E 008°29'0 0.0
2018-Jun-19 02:00N 63°36' E 008°29'0 0.0
2018-Jun-19 01:30N 63°36' E 008°29'0 0.0
2018-Jun-19 01:00N 63°36' E 008°29'0 0.0
2018-Jun-19 00:30N 63°36' E 008°29'0 0.0
2018-Jun-19 00:00N 63°36' E 008°29'0 0.3
2018-Jun-18 23:30N 63°36' E 008°29'0 0.0
2018-Jun-18 22:59N 63°36' E 008°29'0 0.0
2018-Jun-18 22:30N 63°36' E 008°29'0 0.0
2018-Jun-18 22:00N 63°36' E 008°29'0 0.0
2018-Jun-18 21:30N 63°36' E 008°29'0 0.0
2018-Jun-18 21:00N 63°36' E 008°29'0 0.4
2018-Jun-18 20:30N 63°36' E 008°29'0 0.0
2018-Jun-18 20:00N 63°36' E 008°29'0 0.0
2018-Jun-18 19:30N 63°36' E 008°29'0 0.0
2018-Jun-18 19:00N 63°36' E 008°29'0 0.0
2018-Jun-18 18:30N 63°36' E 008°29'0 0.0
2018-Jun-18 18:00N 63°36' E 008°29'0 0.0
2018-Jun-18 17:30N 63°36' E 008°29'0 0.4
2018-Jun-18 17:00N 63°36' E 008°29'0 0.0
2018-Jun-18 16:30N 63°36' E 008°29'0 0.0
2018-Jun-18 16:00N 63°36' E 008°29'0 0.0
2018-Jun-18 15:30N 63°36' E 008°29'0 0.0
2018-Jun-18 14:59N 63°36' E 008°29'0 0.0
2018-Jun-18 14:30N 63°36' E 008°29'0 0.0
2018-Jun-18 14:00N 63°36' E 008°29'0 0.0
2018-Jun-18 13:30N 63°36' E 008°29'0 0.0
2018-Jun-18 13:00N 63°36' E 008°29'0 0.0
2018-Jun-18 12:30N 63°36' E 008°29'0 0.2
2018-Jun-18 12:00N 63°36' E 008°29'0 0.5
2018-Jun-18 11:30N 63°36' E 008°29'0 0.0
2018-Jun-18 11:00N 63°36' E 008°29'0 0.0
2018-Jun-18 10:30N 63°36' E 008°29'0 0.0
2018-Jun-18 10:00N 63°36' E 008°29'0 0.0
2018-Jun-18 09:30N 63°36' E 008°29'0 0.0
2018-Jun-18 09:00N 63°36' E 008°29'0 0.0
2018-Jun-18 08:30N 63°36' E 008°29'0 0.0
2018-Jun-18 08:00N 63°36' E 008°29'0 0.0
2018-Jun-18 07:29N 63°36' E 008°29'0 0.0
2018-Jun-18 07:00N 63°36' E 008°29'0 0.0
2018-Jun-18 06:30N 63°36' E 008°29'0 0.4
2018-Jun-18 05:58N 63°37' E 008°30'1 2.2
2018-Jun-18 05:30N 63°37' E 008°28'4 8.6
2018-Jun-18 05:00N 63°39' E 008°37'510.8
2018-Jun-18 04:30N 63°40' E 008°49'4 7.8
2018-Jun-18 04:00N 63°44' E 008°50'0 0.0
2018-Jun-18 03:30N 63°44' E 008°50'0 0.0
2018-Jun-18 03:00N 63°44' E 008°50'0 0.0
2018-Jun-18 02:30N 63°44' E 008°50'0 0.0
2018-Jun-18 02:00N 63°44' E 008°50'0 0.0
2018-Jun-18 01:30N 63°44' E 008°50'0 0.0
2018-Jun-18 01:00N 63°44' E 008°50'0 0.0
2018-Jun-18 00:30N 63°44' E 008°50'0 0.0
2018-Jun-18 00:00N 63°44' E 008°50'0 0.0
2018-Jun-17 23:30N 63°44' E 008°50'0 0.0
2018-Jun-17 23:00N 63°44' E 008°50'0 0.0
2018-Jun-17 22:30N 63°44' E 008°50'0 0.0
2018-Jun-17 22:00N 63°44' E 008°50'0 0.0
2018-Jun-17 21:30N 63°44' E 008°50'0 0.0
2018-Jun-17 21:00N 63°44' E 008°50'0 0.0
2018-Jun-17 20:30N 63°44' E 008°50'0 0.0
2018-Jun-17 20:00N 63°44' E 008°50'0 0.0
2018-Jun-17 19:30N 63°44' E 008°50'0 0.0
2018-Jun-17 19:00N 63°44' E 008°50'0 0.0
2018-Jun-17 18:30N 63°44' E 008°50'0 0.0
2018-Jun-17 18:00N 63°44' E 008°50'0 0.0
2018-Jun-17 17:29N 63°44' E 008°50'0 0.0
2018-Jun-17 17:00N 63°44' E 008°50'0 0.0
2018-Jun-17 16:29N 63°44' E 008°50'0 0.0
2018-Jun-17 16:00N 63°44' E 008°50'0 0.0
2018-Jun-17 15:30N 63°44' E 008°50'0 0.0
2018-Jun-17 15:00N 63°44' E 008°50'0 0.0
2018-Jun-17 14:30N 63°44' E 008°50'0 0.0
2018-Jun-17 14:00N 63°44' E 008°50'0 0.0
2018-Jun-17 13:30N 63°44' E 008°50'0 0.1
2018-Jun-17 13:00N 63°44' E 008°51'0 0.0
2018-Jun-17 12:29N 63°44' E 008°51'0 0.1
2018-Jun-17 11:59N 63°44' E 008°50'0 0.0
2018-Jun-17 11:29N 63°44' E 008°50'0 0.0
2018-Jun-17 11:00N 63°44' E 008°50'0 0.0
2018-Jun-17 10:30N 63°44' E 008°50'0 0.0
2018-Jun-17 10:00N 63°44' E 008°50'0 0.0
2018-Jun-17 09:30N 63°44' E 008°50'0 0.0
2018-Jun-17 09:00N 63°44' E 008°50'0 0.0
2018-Jun-17 08:30N 63°44' E 008°50'0 0.0
2018-Jun-17 08:00N 63°44' E 008°50'0 0.0
2018-Jun-17 07:30N 63°44' E 008°50'0 0.0
2018-Jun-17 07:00N 63°44' E 008°50'0 0.0
2018-Jun-17 06:29N 63°44' E 008°50'0 0.0
2018-Jun-17 06:00N 63°44' E 008°50'0 0.0
2018-Jun-17 05:30N 63°44' E 008°50'0 0.0
2018-Jun-17 05:00N 63°44' E 008°50'0 0.0
2018-Jun-17 04:29N 63°44' E 008°50'0 0.0
2018-Jun-17 04:00N 63°44' E 008°50'0 0.0
2018-Jun-17 03:28N 63°44' E 008°50'0 0.0
2018-Jun-17 03:00N 63°44' E 008°50'0 0.0
2018-Jun-17 02:30N 63°44' E 008°50'0 0.0
2018-Jun-17 01:59N 63°44' E 008°50'0 0.0
2018-Jun-17 01:30N 63°44' E 008°50'0 0.0
2018-Jun-17 01:00N 63°44' E 008°50'0 0.0
2018-Jun-17 00:30N 63°44' E 008°50'0 0.0
2018-Jun-17 00:00N 63°44' E 008°50'0 0.0
2018-Jun-16 23:30N 63°44' E 008°50'0 0.0
2018-Jun-16 23:00N 63°44' E 008°50'0 0.0
2018-Jun-16 22:28N 63°44' E 008°50'0 0.0
2018-Jun-16 22:00N 63°44' E 008°50'0 0.0
2018-Jun-16 21:30N 63°44' E 008°50'0 0.0
2018-Jun-16 21:00N 63°44' E 008°50'0 0.0
2018-Jun-16 20:30N 63°44' E 008°50'0 0.0
2018-Jun-16 20:00N 63°44' E 008°50'0 0.0
2018-Jun-16 19:30N 63°44' E 008°50'0 0.0
2018-Jun-16 19:00N 63°44' E 008°50'0 0.0
2018-Jun-16 18:30N 63°44' E 008°50'0 0.0
2018-Jun-16 18:00N 63°44' E 008°50'0 0.0
2018-Jun-16 17:30N 63°44' E 008°50'0 0.0
2018-Jun-16 17:00N 63°44' E 008°50'0 0.0
2018-Jun-16 16:29N 63°44' E 008°50'0 0.0
2018-Jun-16 15:59N 63°44' E 008°50'0 0.0
2018-Jun-16 15:30N 63°44' E 008°50'0 0.0
2018-Jun-16 15:00N 63°44' E 008°50'0 0.0
2018-Jun-16 14:30N 63°44' E 008°50'0 0.0
2018-Jun-16 13:58N 63°44' E 008°50'0 0.0
2018-Jun-16 13:30N 63°44' E 008°50'0 0.0
2018-Jun-16 13:00N 63°44' E 008°50'0 0.0
2018-Jun-16 12:30N 63°44' E 008°50'0 0.0
2018-Jun-16 12:00N 63°44' E 008°50'0 0.0
2018-Jun-16 11:30N 63°44' E 008°50'0 0.0
2018-Jun-16 11:00N 63°44' E 008°50'0 0.0
2018-Jun-16 10:30N 63°44' E 008°50'0 0.0
2018-Jun-16 10:00N 63°44' E 008°50'0 0.0
2018-Jun-16 09:30N 63°44' E 008°50'0 0.0
2018-Jun-16 09:00N 63°44' E 008°50'0 0.0
2018-Jun-16 08:30N 63°44' E 008°50'0 0.0
2018-Jun-16 08:00N 63°44' E 008°50'0 0.0
2018-Jun-16 07:30N 63°44' E 008°50'0 0.0
2018-Jun-16 07:00N 63°44' E 008°50'0 0.0
2018-Jun-16 06:30N 63°44' E 008°50'0 0.0
2018-Jun-16 06:00N 63°44' E 008°50'0 0.0
2018-Jun-16 05:30N 63°44' E 008°50'0 0.0
2018-Jun-16 04:59N 63°44' E 008°50'0 0.0
2018-Jun-16 04:30N 63°44' E 008°50'0 0.0
2018-Jun-16 03:59N 63°44' E 008°50'0 0.0
2018-Jun-16 03:30N 63°44' E 008°50'0 0.0
2018-Jun-16 03:00N 63°44' E 008°50'0 0.0
2018-Jun-16 02:30N 63°44' E 008°50'0 0.0
2018-Jun-16 02:00N 63°44' E 008°50'0 0.0
2018-Jun-16 01:30N 63°44' E 008°50'0 0.0
2018-Jun-16 01:00N 63°44' E 008°50'0 0.0
2018-Jun-16 00:30N 63°44' E 008°50'0 0.0
2018-Jun-16 00:00N 63°44' E 008°50'0 0.0
2018-Jun-15 23:30N 63°44' E 008°50'0 0.0
2018-Jun-15 23:00N 63°44' E 008°50'0 0.0
2018-Jun-15 22:30N 63°44' E 008°50'0 0.0
2018-Jun-15 21:59N 63°44' E 008°50'0 0.0
2018-Jun-15 21:30N 63°44' E 008°50'0 0.0
2018-Jun-15 20:59N 63°44' E 008°50'0 0.0
2018-Jun-15 20:30N 63°44' E 008°50'0 0.0
2018-Jun-15 20:00N 63°44' E 008°50'0 0.0
2018-Jun-15 19:30N 63°44' E 008°50'0 0.0
2018-Jun-15 19:00N 63°44' E 008°50'0 0.0
2018-Jun-15 18:30N 63°44' E 008°50'0 0.0
2018-Jun-15 17:59N 63°44' E 008°50'0 0.0
2018-Jun-15 17:30N 63°44' E 008°50'0 0.0
2018-Jun-15 16:59N 63°44' E 008°50'0 0.0
2018-Jun-15 16:30N 63°44' E 008°50'0 0.0
2018-Jun-15 16:00N 63°44' E 008°50'0 0.0
2018-Jun-15 15:30N 63°44' E 008°50'0 0.0
2018-Jun-15 15:00N 63°44' E 008°50'0 0.0
2018-Jun-15 14:30N 63°44' E 008°50'0 0.0
2018-Jun-15 14:00N 63°44' E 008°50'0 0.0
2018-Jun-15 13:30N 63°44' E 008°50'0 0.0
2018-Jun-15 12:59N 63°44' E 008°50'0 0.0
2018-Jun-15 12:30N 63°44' E 008°50'0 0.0
2018-Jun-15 12:00N 63°44' E 008°50'0 0.0
2018-Jun-15 11:30N 63°44' E 008°50'0 0.0
2018-Jun-15 11:00N 63°44' E 008°50'0 0.0
2018-Jun-15 10:30N 63°44' E 008°50'0 0.0
2018-Jun-15 10:00N 63°44' E 008°50'0 0.0
2018-Jun-15 09:30N 63°44' E 008°50'0 0.0
2018-Jun-15 09:00N 63°44' E 008°50'0 0.0
2018-Jun-15 08:30N 63°44' E 008°50'0 0.0
2018-Jun-15 08:00N 63°44' E 008°50'  
Track history (hours):
 
Tides and Currents Weather Stations Pressure Air Temp Water Temp Dewpoint Dewpoint Depression Visibility Wind Speed Wind Dir Waves Ship Positions

Gaso Freyja

Last reported at 2018-Jun-25 08:00 UTC. Time now 2018-Jun-25 08:12 UTC.
Position N 64°17' E 010°18'.

Length 85 m.

Type: Cargo ship. MMSI: 257252000.

Date/timePositionNaut miles runAvg speedWind from/ knotsBaromVisibWave heightAir tempDewpointWater temp
2018-Jun-25 08:00N 64°17' E 010°18'0 0.0
2018-Jun-25 07:30N 64°17' E 010°18'0 0.0
2018-Jun-25 07:00N 64°17' E 010°18'0 0.0
2018-Jun-25 06:30N 64°17' E 010°18'0 0.0
2018-Jun-25 05:59N 64°17' E 010°18'0 0.0
2018-Jun-25 05:29N 64°17' E 010°18'0 0.0
2018-Jun-25 04:59N 64°17' E 010°18'1 1.4
2018-Jun-25 04:31N 64°17' E 010°19'1 2.4
2018-Jun-25 03:59N 64°15' E 010°20'0 0.0
2018-Jun-25 03:30N 64°15' E 010°20'0 0.0
2018-Jun-25 03:00N 64°15' E 010°20'0 0.0
2018-Jun-25 02:29N 64°15' E 010°20'0 0.0
2018-Jun-25 02:00N 64°15' E 010°20'0 0.0
2018-Jun-25 01:30N 64°15' E 010°20'0 0.0
2018-Jun-25 01:00N 64°15' E 010°20'0 0.0
2018-Jun-25 00:30N 64°15' E 010°20'0 0.0
2018-Jun-24 23:58N 64°15' E 010°20'0 0.0
2018-Jun-24 23:30N 64°15' E 010°20'0 0.0
2018-Jun-24 22:59N 64°15' E 010°20'0 0.0
2018-Jun-24 22:29N 64°15' E 010°20'0 0.0
2018-Jun-24 22:00N 64°15' E 010°20'0 0.0
2018-Jun-24 21:30N 64°15' E 010°20'0 0.0
2018-Jun-24 21:00N 64°15' E 010°20'0 0.0
2018-Jun-24 20:30N 64°15' E 010°20'0 0.0
2018-Jun-24 19:59N 64°15' E 010°20'0 0.0
2018-Jun-24 19:30N 64°15' E 010°20'0 0.0
2018-Jun-24 19:00N 64°15' E 010°20'0 0.0
2018-Jun-24 18:30N 64°15' E 010°20'0 0.0
2018-Jun-24 17:58N 64°15' E 010°20'0 0.0
2018-Jun-24 17:25N 64°15' E 010°20'0 0.0
2018-Jun-24 16:59N 64°15' E 010°20'0 0.0
2018-Jun-24 16:30N 64°15' E 010°20'0 0.5
2018-Jun-24 15:57N 64°15' E 010°20'5 9.7
2018-Jun-24 15:29N 64°12' E 010°11'612.5
2018-Jun-24 15:00N 64°07' E 010°04'612.7
2018-Jun-24 14:31N 64°04' E 009°52'612.7
2018-Jun-24 14:00N 64°01' E 009°39'612.4
2018-Jun-24 13:30N 63°57' E 009°27'612.6
2018-Jun-24 13:00N 63°53' E 009°16'612.7
2018-Jun-24 12:30N 63°49' E 009°05'612.3
2018-Jun-24 12:00N 63°46' E 008°53'2 4.0
2018-Jun-24 11:30N 63°44' E 008°50'0 0.0
2018-Jun-24 11:00N 63°44' E 008°50'0 0.0
2018-Jun-24 10:30N 63°44' E 008°50'0 0.0
2018-Jun-24 09:58N 63°44' E 008°50'0 0.0
2018-Jun-24 09:28N 63°44' E 008°50'0 0.0
2018-Jun-24 08:58N 63°44' E 008°50'0 0.0
2018-Jun-24 08:28N 63°44' E 008°50'0 0.0
2018-Jun-24 08:01N 63°44' E 008°50'0 0.0
2018-Jun-24 07:28N 63°44' E 008°50'0 0.0
2018-Jun-24 06:58N 63°44' E 008°50'0 0.0
2018-Jun-24 06:28N 63°44' E 008°50'0 0.0
2018-Jun-24 05:58N 63°44' E 008°50'0 0.0
2018-Jun-24 05:31N 63°44' E 008°50'0 0.0
2018-Jun-24 04:58N 63°44' E 008°50'0 0.0
2018-Jun-24 04:28N 63°44' E 008°50'0 0.0
2018-Jun-24 03:58N 63°44' E 008°50'0 0.0
2018-Jun-24 03:28N 63°44' E 008°50'0 0.0
2018-Jun-24 02:58N 63°44' E 008°50'0 0.0
2018-Jun-24 02:28N 63°44' E 008°50'0 0.0
2018-Jun-24 01:58N 63°44' E 008°50'0 0.0
2018-Jun-24 01:28N 63°44' E 008°50'0 0.0
2018-Jun-24 00:58N 63°44' E 008°50'0 0.0
2018-Jun-24 00:28N 63°44' E 008°50'0 0.0
2018-Jun-23 23:58N 63°44' E 008°50'0 0.0
2018-Jun-23 23:28N 63°44' E 008°50'0 0.0
2018-Jun-23 22:58N 63°44' E 008°50'0 0.0
2018-Jun-23 22:28N 63°44' E 008°50'0 0.0
2018-Jun-23 21:58N 63°44' E 008°50'0 0.0
2018-Jun-23 21:28N 63°44' E 008°50'0 0.0
2018-Jun-23 20:58N 63°44' E 008°50'0 0.0
2018-Jun-23 20:28N 63°44' E 008°50'0 0.0
2018-Jun-23 19:58N 63°44' E 008°50'0 0.0
2018-Jun-23 19:25N 63°44' E 008°50'0 0.0
2018-Jun-23 18:58N 63°44' E 008°50'0 0.0
2018-Jun-23 18:28N 63°44' E 008°50'0 0.0
2018-Jun-23 17:58N 63°44' E 008°50'0 0.0
2018-Jun-23 17:25N 63°44' E 008°50'0 0.0
2018-Jun-23 16:58N 63°44' E 008°50'0 0.0
2018-Jun-23 16:28N 63°44' E 008°50'0 0.0
2018-Jun-23 15:58N 63°44' E 008°50'0 0.0
2018-Jun-23 15:28N 63°44' E 008°50'0 0.0
2018-Jun-23 14:58N 63°44' E 008°50'0 0.0
2018-Jun-23 14:31N 63°44' E 008°50'0 0.0
2018-Jun-23 13:58N 63°44' E 008°50'0 0.0
2018-Jun-23 13:31N 63°44' E 008°50'0 0.0
2018-Jun-23 12:58N 63°44' E 008°50'0 0.0
2018-Jun-23 12:28N 63°44' E 008°50'0 0.0
2018-Jun-23 11:58N 63°44' E 008°50'0 0.0
2018-Jun-23 11:28N 63°44' E 008°50'0 0.0
2018-Jun-23 10:58N 63°44' E 008°50'0 0.0
2018-Jun-23 10:28N 63°44' E 008°50'0 0.0
2018-Jun-23 09:58N 63°44' E 008°50'0 0.0
2018-Jun-23 09:28N 63°44' E 008°50'0 0.0
2018-Jun-23 08:58N 63°44' E 008°50'0 0.0
2018-Jun-23 08:28N 63°44' E 008°50'0 0.0
2018-Jun-23 07:58N 63°44' E 008°50'0 0.0
2018-Jun-23 07:28N 63°44' E 008°50'0 0.0
2018-Jun-23 06:58N 63°44' E 008°50'0 0.0
2018-Jun-23 06:28N 63°44' E 008°50'0 0.0
2018-Jun-23 05:58N 63°44' E 008°50'0 0.0
2018-Jun-23 05:28N 63°44' E 008°50'0 0.0
2018-Jun-23 04:58N 63°44' E 008°50'0 0.0
2018-Jun-23 04:28N 63°44' E 008°50'0 0.0
2018-Jun-23 04:01N 63°44' E 008°50'0 0.0
2018-Jun-23 03:28N 63°44' E 008°50'0 0.0
2018-Jun-23 03:01N 63°44' E 008°50'0 0.0
2018-Jun-23 02:28N 63°44' E 008°50'0 0.0
2018-Jun-23 01:58N 63°44' E 008°50'0 0.0
2018-Jun-23 01:28N 63°44' E 008°50'0 0.0
2018-Jun-23 00:58N 63°44' E 008°50'0 0.0
2018-Jun-23 00:31N 63°44' E 008°50'0 0.0
2018-Jun-22 23:58N 63°44' E 008°50'0 0.0
2018-Jun-22 23:28N 63°44' E 008°50'0 0.0
2018-Jun-22 23:01N 63°44' E 008°50'0 0.0
2018-Jun-22 22:28N 63°44' E 008°50'0 0.0
2018-Jun-22 22:01N 63°44' E 008°50'0 0.0
2018-Jun-22 21:28N 63°44' E 008°50'0 0.0
2018-Jun-22 20:58N 63°44' E 008°50'0 0.0
2018-Jun-22 20:28N 63°44' E 008°50'0 0.0
2018-Jun-22 19:58N 63°44' E 008°50'0 0.0
2018-Jun-22 19:28N 63°44' E 008°50'0 0.0
2018-Jun-22 18:58N 63°44' E 008°50'0 0.0
2018-Jun-22 18:28N 63°44' E 008°50'0 0.0
2018-Jun-22 17:55N 63°44' E 008°50'0 0.0
2018-Jun-22 17:28N 63°44' E 008°50'0 0.0
2018-Jun-22 16:58N 63°44' E 008°50'0 0.0
2018-Jun-22 16:28N 63°44' E 008°50'0 0.0
2018-Jun-22 15:58N 63°44' E 008°50'0 0.0
2018-Jun-22 15:28N 63°44' E 008°50'0 0.0
2018-Jun-22 14:58N 63°44' E 008°50'0 0.0
2018-Jun-22 14:28N 63°44' E 008°50'0 0.0
2018-Jun-22 13:58N 63°44' E 008°50'0 0.0
2018-Jun-22 13:28N 63°44' E 008°50'0 0.0
2018-Jun-22 12:58N 63°44' E 008°50'0 0.0
2018-Jun-22 12:28N 63°44' E 008°50'0 0.0
2018-Jun-22 11:58N 63°44' E 008°50'0 0.0
2018-Jun-22 11:25N 63°44' E 008°50'0 0.0
2018-Jun-22 10:58N 63°44' E 008°50'0 0.0
2018-Jun-22 10:28N 63°44' E 008°50'0 0.0
2018-Jun-22 09:58N 63°44' E 008°50'0 0.0
2018-Jun-22 09:28N 63°44' E 008°50'0 0.0
2018-Jun-22 08:58N 63°44' E 008°50'0 0.0
2018-Jun-22 08:28N 63°44' E 008°50'0 0.0
2018-Jun-22 07:58N 63°44' E 008°50'0 0.0
2018-Jun-22 07:28N 63°44' E 008°50'0 0.0
2018-Jun-22 06:58N 63°44' E 008°50'0 0.0
2018-Jun-22 06:28N 63°44' E 008°50'0 0.0
2018-Jun-22 05:58N 63°44' E 008°50'0 0.0
2018-Jun-22 05:28N 63°44' E 008°50'0 0.0
2018-Jun-22 05:01N 63°44' E 008°50'0 0.0
2018-Jun-22 04:28N 63°44' E 008°50'0 0.0
2018-Jun-22 03:58N 63°44' E 008°50'0 0.0
2018-Jun-22 03:31N 63°44' E 008°50'0 0.0
2018-Jun-22 02:58N 63°44' E 008°50'0 0.0
2018-Jun-22 02:28N 63°44' E 008°50'0 0.0
2018-Jun-22 01:58N 63°44' E 008°50'0 0.0
2018-Jun-22 01:28N 63°44' E 008°50'0 0.0
2018-Jun-22 00:58N 63°44' E 008°50'0 0.0
2018-Jun-22 00:28N 63°44' E 008°50'0 0.0
2018-Jun-21 23:58N 63°44' E 008°50'0 0.0
2018-Jun-21 23:28N 63°44' E 008°50'0 0.0
2018-Jun-21 22:58N 63°44' E 008°50'0 0.0
2018-Jun-21 22:29N 63°44' E 008°50'1 2.3
2018-Jun-21 22:00N 63°43' E 008°51'3 6.9
2018-Jun-21 21:30N 63°41' E 008°57'1 1.6
2018-Jun-21 21:00N 63°40' E 008°58'0 0.4
2018-Jun-21 20:30N 63°40' E 008°57'0 0.4
2018-Jun-21 20:00N 63°40' E 008°57'0 0.6
2018-Jun-21 19:30N 63°41' E 008°57'0 0.7
2018-Jun-21 19:00N 63°41' E 008°56'0 0.9
2018-Jun-21 18:30N 63°41' E 008°55'1 1.2
2018-Jun-21 18:00N 63°41' E 008°54'2 4.5
2018-Jun-21 17:30N 63°40' E 008°49'3 6.0
2018-Jun-21 17:00N 63°40' E 008°42'3 6.1
2018-Jun-21 16:30N 63°39' E 008°36'2 4.4
2018-Jun-21 15:58N 63°39' E 008°31'2 3.3
2018-Jun-21 15:29N 63°38' E 008°28'1 3.1
2018-Jun-21 15:00N 63°36' E 008°29'0 0.0
2018-Jun-21 14:30N 63°36' E 008°29'0 0.0
2018-Jun-21 14:00N 63°36' E 008°29'0 0.0
2018-Jun-21 13:30N 63°36' E 008°29'0 0.0
2018-Jun-21 13:00N 63°36' E 008°29'0 0.0
2018-Jun-21 12:30N 63°36' E 008°29'0 0.0
2018-Jun-21 12:00N 63°36' E 008°29'0 0.2
2018-Jun-21 11:29N 63°36' E 008°29'0 0.0
2018-Jun-21 11:00N 63°36' E 008°29'0 0.0
2018-Jun-21 10:30N 63°36' E 008°29'0 0.0
2018-Jun-21 10:00N 63°36' E 008°29'0 0.1
2018-Jun-21 09:29N 63°36' E 008°29'0 0.0
2018-Jun-21 09:00N 63°36' E 008°29'0 0.0
2018-Jun-21 08:30N 63°36' E 008°29'0 0.0
2018-Jun-21 08:00N 63°36' E 008°29'0 0.1
2018-Jun-21 07:30N 63°36' E 008°29'0 0.0
2018-Jun-21 07:00N 63°36' E 008°29'0 0.0
2018-Jun-21 06:30N 63°36' E 008°29'0 0.0
2018-Jun-21 06:00N 63°36' E 008°29'0 0.0
2018-Jun-21 05:29N 63°36' E 008°29'0 0.1
2018-Jun-21 05:00N 63°36' E 008°29'0 0.0
2018-Jun-21 04:29N 63°36' E 008°29'0 0.0
2018-Jun-21 04:00N 63°36' E 008°29'0 0.0
2018-Jun-21 03:30N 63°36' E 008°29'0 0.1
2018-Jun-21 03:00N 63°36' E 008°29'0 0.0
2018-Jun-21 02:30N 63°36' E 008°29'0 0.0
2018-Jun-21 02:00N 63°36' E 008°29'0 0.0
2018-Jun-21 01:30N 63°36' E 008°29'0 0.0
2018-Jun-21 01:00N 63°36' E 008°29'0 0.0
2018-Jun-21 00:30N 63°36' E 008°29'0 0.1
2018-Jun-21 00:00N 63°36' E 008°29'0 0.0
2018-Jun-20 23:30N 63°36' E 008°29'0 0.0
2018-Jun-20 23:00N 63°36' E 008°29'0 0.0
2018-Jun-20 22:30N 63°36' E 008°29'0 0.0
2018-Jun-20 22:00N 63°36' E 008°29'0 0.0
2018-Jun-20 21:30N 63°36' E 008°29'0 0.0
2018-Jun-20 21:00N 63°36' E 008°29'0 0.0
2018-Jun-20 20:29N 63°36' E 008°29'0 0.0
2018-Jun-20 20:00N 63°36' E 008°29'0 0.2
2018-Jun-20 19:30N 63°36' E 008°29'0 0.0
2018-Jun-20 18:59N 63°36' E 008°29'0 0.0
2018-Jun-20 18:29N 63°36' E 008°29'0 0.0
2018-Jun-20 18:00N 63°36' E 008°29'0 0.0
2018-Jun-20 17:30N 63°36' E 008°29'0 0.0
2018-Jun-20 17:00N 63°36' E 008°29'0 0.0
2018-Jun-20 16:29N 63°36' E 008°29'0 0.0
2018-Jun-20 16:00N 63°36' E 008°29'0 0.1
2018-Jun-20 15:30N 63°36' E 008°29'0 0.0
2018-Jun-20 15:00N 63°36' E 008°29'0 0.0
2018-Jun-20 14:30N 63°36' E 008°29'0 0.0
2018-Jun-20 14:00N 63°36' E 008°29'0 0.0
2018-Jun-20 13:30N 63°36' E 008°29'0 0.0
2018-Jun-20 13:00N 63°36' E 008°29'0 0.0
2018-Jun-20 12:30N 63°36' E 008°29'0 0.8
2018-Jun-20 11:59N 63°37' E 008°30'2 4.6
2018-Jun-20 11:30N 63°39' E 008°32'4 7.9
2018-Jun-20 11:00N 63°40' E 008°40'3 7.2
2018-Jun-20 10:30N 63°40' E 008°48'2 4.8
2018-Jun-20 10:00N 63°43' E 008°51'0 0.0
2018-Jun-20 09:30N 63°43' E 008°51'0 0.0
2018-Jun-20 09:00N 63°43' E 008°51'0 0.0
2018-Jun-20 08:30N 63°43' E 008°51'0 0.0
2018-Jun-20 08:00N 63°43' E 008°51'0 0.0
2018-Jun-20 07:29N 63°43' E 008°51'0 0.0
2018-Jun-20 07:00N 63°43' E 008°51'0 0.0
2018-Jun-20 06:30N 63°43' E 008°51'0 0.0
2018-Jun-20 06:00N 63°43' E 008°51'0 0.0
2018-Jun-20 05:29N 63°43' E 008°51'0 0.0
2018-Jun-20 04:59N 63°43' E 008°51'0 0.0
2018-Jun-20 04:30N 63°43' E 008°51'0 0.0
2018-Jun-20 04:00N 63°43' E 008°51'0 0.0
2018-Jun-20 03:30N 63°43' E 008°51'0 0.0
2018-Jun-20 03:00N 63°43' E 008°51'0 0.0
2018-Jun-20 02:30N 63°43' E 008°51'0 0.0
2018-Jun-20 01:59N 63°43' E 008°51'0 0.0
2018-Jun-20 01:30N 63°43' E 008°51'0 0.0
2018-Jun-20 01:00N 63°43' E 008°51'0 0.0
2018-Jun-20 00:30N 63°43' E 008°51'0 0.0
2018-Jun-19 23:59N 63°43' E 008°51'0 0.0
2018-Jun-19 23:30N 63°43' E 008°51'0 0.0
2018-Jun-19 22:59N 63°43' E 008°51'0 0.0
2018-Jun-19 22:30N 63°43' E 008°51'0 0.0
2018-Jun-19 22:00N 63°43' E 008°51'0 0.0
2018-Jun-19 21:30N 63°43' E 008°51'0 0.0
2018-Jun-19 21:00N 63°43' E 008°51'0 0.0
2018-Jun-19 20:30N 63°43' E 008°51'0 0.0
2018-Jun-19 20:00N 63°43' E 008°51'0 0.0
2018-Jun-19 19:29N 63°43' E 008°51'0 0.0
2018-Jun-19 19:00N 63°43' E 008°51'0 0.0
2018-Jun-19 18:30N 63°43' E 008°51'0 0.0
2018-Jun-19 18:00N 63°43' E 008°51'2 3.2
2018-Jun-19 17:30N 63°44' E 008°50'0 0.0
2018-Jun-19 17:00N 63°44' E 008°50'0 0.0
2018-Jun-19 16:30N 63°44' E 008°50'0 0.0
2018-Jun-19 16:00N 63°44' E 008°50'0 0.0
2018-Jun-19 15:30N 63°44' E 008°50'0 0.0
2018-Jun-19 15:00N 63°44' E 008°50'0 0.0
2018-Jun-19 14:30N 63°44' E 008°50'0 0.0
2018-Jun-19 14:00N 63°44' E 008°50'0 0.0
2018-Jun-19 13:29N 63°44' E 008°50'0 0.0
2018-Jun-19 13:00N 63°44' E 008°50'0 0.0
2018-Jun-19 12:30N 63°44' E 008°50'0 0.0
2018-Jun-19 11:59N 63°44' E 008°50'0 0.0
2018-Jun-19 11:30N 63°44' E 008°50'0 0.0
2018-Jun-19 11:00N 63°44' E 008°50'0 0.0
2018-Jun-19 10:30N 63°44' E 008°50'0 0.0
2018-Jun-19 10:00N 63°44' E 008°50'0 0.0
2018-Jun-19 09:30N 63°44' E 008°50'0 0.0
2018-Jun-19 09:00N 63°44' E 008°50'0 0.0
2018-Jun-19 08:30N 63°44' E 008°50'3 6.0
2018-Jun-19 08:00N 63°41' E 008°50'611.2
2018-Jun-19 07:30N 63°40' E 008°38'5 9.3
2018-Jun-19 07:00N 63°37' E 008°29'1 1.4
2018-Jun-19 06:30N 63°36' E 008°29'0 0.0
2018-Jun-19 06:00N 63°36' E 008°29'0 0.0
2018-Jun-19 05:30N 63°36' E 008°29'0 0.0
2018-Jun-19 05:00N 63°36' E 008°29'0 0.0
2018-Jun-19 04:29N 63°36' E 008°29'0 0.0
2018-Jun-19 03:59N 63°36' E 008°29'0 0.0
2018-Jun-19 03:30N 63°36' E 008°29'0 0.1
2018-Jun-19 03:00N 63°36' E 008°29'0 0.0
2018-Jun-19 02:30N 63°36' E 008°29'0 0.0
2018-Jun-19 02:00N 63°36' E 008°29'0 0.0
2018-Jun-19 01:30N 63°36' E 008°29'0 0.0
2018-Jun-19 01:00N 63°36' E 008°29'0 0.0
2018-Jun-19 00:30N 63°36' E 008°29'0 0.0
2018-Jun-19 00:00N 63°36' E 008°29'0 0.3
2018-Jun-18 23:30N 63°36' E 008°29'0 0.0
2018-Jun-18 22:59N 63°36' E 008°29'0 0.0
2018-Jun-18 22:30N 63°36' E 008°29'0 0.0
2018-Jun-18 22:00N 63°36' E 008°29'0 0.0
2018-Jun-18 21:30N 63°36' E 008°29'0 0.0
2018-Jun-18 21:00N 63°36' E 008°29'0 0.4
2018-Jun-18 20:30N 63°36' E 008°29'0 0.0
2018-Jun-18 20:00N 63°36' E 008°29'0 0.0
2018-Jun-18 19:30N 63°36' E 008°29'0 0.0
2018-Jun-18 19:00N 63°36' E 008°29'0 0.0
2018-Jun-18 18:30N 63°36' E 008°29'0 0.0
2018-Jun-18 18:00N 63°36' E 008°29'0 0.0
2018-Jun-18 17:30N 63°36' E 008°29'0 0.4
2018-Jun-18 17:00N 63°36' E 008°29'0 0.0
2018-Jun-18 16:30N 63°36' E 008°29'0 0.0
2018-Jun-18 16:00N 63°36' E 008°29'0 0.0
2018-Jun-18 15:30N 63°36' E 008°29'0 0.0
2018-Jun-18 14:59N 63°36' E 008°29'0 0.0
2018-Jun-18 14:30N 63°36' E 008°29'0 0.0
2018-Jun-18 14:00N 63°36' E 008°29'0 0.0
2018-Jun-18 13:30N 63°36' E 008°29'0 0.0
2018-Jun-18 13:00N 63°36' E 008°29'0 0.0
2018-Jun-18 12:30N 63°36' E 008°29'0 0.2
2018-Jun-18 12:00N 63°36' E 008°29'0 0.5
2018-Jun-18 11:30N 63°36' E 008°29'0 0.0
2018-Jun-18 11:00N 63°36' E 008°29'0 0.0
2018-Jun-18 10:30N 63°36' E 008°29'0 0.0
2018-Jun-18 10:00N 63°36' E 008°29'0 0.0
2018-Jun-18 09:30N 63°36' E 008°29'0 0.0
2018-Jun-18 09:00N 63°36' E 008°29'0 0.0
2018-Jun-18 08:30N 63°36' E 008°29'0 0.0
2018-Jun-18 08:00N 63°36' E 008°29'0 0.0
2018-Jun-18 07:29N 63°36' E 008°29'0 0.0
2018-Jun-18 07:00N 63°36' E 008°29'0 0.0
2018-Jun-18 06:30N 63°36' E 008°29'0 0.4
2018-Jun-18 05:58N 63°37' E 008°30'1 2.2
2018-Jun-18 05:30N 63°37' E 008°28'4 8.6
2018-Jun-18 05:00N 63°39' E 008°37'510.8
2018-Jun-18 04:30N 63°40' E 008°49'4 7.8
2018-Jun-18 04:00N 63°44' E 008°50'0 0.0
2018-Jun-18 03:30N 63°44' E 008°50'0 0.0
2018-Jun-18 03:00N 63°44' E 008°50'0 0.0
2018-Jun-18 02:30N 63°44' E 008°50'0 0.0
2018-Jun-18 02:00N 63°44' E 008°50'0 0.0
2018-Jun-18 01:30N 63°44' E 008°50'0 0.0
2018-Jun-18 01:00N 63°44' E 008°50'0 0.0
2018-Jun-18 00:30N 63°44' E 008°50'0 0.0
2018-Jun-18 00:00N 63°44' E 008°50'0 0.0
2018-Jun-17 23:30N 63°44' E 008°50'0 0.0
2018-Jun-17 23:00N 63°44' E 008°50'0 0.0
2018-Jun-17 22:30N 63°44' E 008°50'0 0.0
2018-Jun-17 22:00N 63°44' E 008°50'0 0.0
2018-Jun-17 21:30N 63°44' E 008°50'0 0.0
2018-Jun-17 21:00N 63°44' E 008°50'0 0.0
2018-Jun-17 20:30N 63°44' E 008°50'0 0.0
2018-Jun-17 20:00N 63°44' E 008°50'0 0.0
2018-Jun-17 19:30N 63°44' E 008°50'0 0.0
2018-Jun-17 19:00N 63°44' E 008°50'0 0.0
2018-Jun-17 18:30N 63°44' E 008°50'0 0.0
2018-Jun-17 18:00N 63°44' E 008°50'0 0.0
2018-Jun-17 17:29N 63°44' E 008°50'0 0.0
2018-Jun-17 17:00N 63°44' E 008°50'0 0.0
2018-Jun-17 16:29N 63°44' E 008°50'0 0.0
2018-Jun-17 16:00N 63°44' E 008°50'0 0.0
2018-Jun-17 15:30N 63°44' E 008°50'0 0.0
2018-Jun-17 15:00N 63°44' E 008°50'0 0.0
2018-Jun-17 14:30N 63°44' E 008°50'0 0.0
2018-Jun-17 14:00N 63°44' E 008°50'0 0.0
2018-Jun-17 13:30N 63°44' E 008°50'0 0.1
2018-Jun-17 13:00N 63°44' E 008°51'0 0.0
2018-Jun-17 12:29N 63°44' E 008°51'0 0.1
2018-Jun-17 11:59N 63°44' E 008°50'0 0.0
2018-Jun-17 11:29N 63°44' E 008°50'0 0.0
2018-Jun-17 11:00N 63°44' E 008°50'0 0.0
2018-Jun-17 10:30N 63°44' E 008°50'0 0.0
2018-Jun-17 10:00N 63°44' E 008°50'0 0.0
2018-Jun-17 09:30N 63°44' E 008°50'0 0.0
2018-Jun-17 09:00N 63°44' E 008°50'0 0.0
2018-Jun-17 08:30N 63°44' E 008°50'0 0.0
2018-Jun-17 08:00N 63°44' E 008°50'0 0.0
2018-Jun-17 07:30N 63°44' E 008°50'0 0.0
2018-Jun-17 07:00N 63°44' E 008°50'0 0.0
2018-Jun-17 06:29N 63°44' E 008°50'0 0.0
2018-Jun-17 06:00N 63°44' E 008°50'0 0.0
2018-Jun-17 05:30N 63°44' E 008°50'0 0.0
2018-Jun-17 05:00N 63°44' E 008°50'0 0.0
2018-Jun-17 04:29N 63°44' E 008°50'0 0.0
2018-Jun-17 04:00N 63°44' E 008°50'0 0.0
2018-Jun-17 03:28N 63°44' E 008°50'0 0.0
2018-Jun-17 03:00N 63°44' E 008°50'0 0.0
2018-Jun-17 02:30N 63°44' E 008°50'0 0.0
2018-Jun-17 01:59N 63°44' E 008°50'0 0.0
2018-Jun-17 01:30N 63°44' E 008°50'0 0.0
2018-Jun-17 01:00N 63°44' E 008°50'0 0.0
2018-Jun-17 00:30N 63°44' E 008°50'0 0.0
2018-Jun-17 00:00N 63°44' E 008°50'0 0.0
2018-Jun-16 23:30N 63°44' E 008°50'0 0.0
2018-Jun-16 23:00N 63°44' E 008°50'0 0.0
2018-Jun-16 22:28N 63°44' E 008°50'0 0.0
2018-Jun-16 22:00N 63°44' E 008°50'0 0.0
2018-Jun-16 21:30N 63°44' E 008°50'0 0.0
2018-Jun-16 21:00N 63°44' E 008°50'0 0.0
2018-Jun-16 20:30N 63°44' E 008°50'0 0.0
2018-Jun-16 20:00N 63°44' E 008°50'0 0.0
2018-Jun-16 19:30N 63°44' E 008°50'0 0.0
2018-Jun-16 19:00N 63°44' E 008°50'0 0.0
2018-Jun-16 18:30N 63°44' E 008°50'0 0.0
2018-Jun-16 18:00N 63°44' E 008°50'0 0.0
2018-Jun-16 17:30N 63°44' E 008°50'0 0.0
2018-Jun-16 17:00N 63°44' E 008°50'0 0.0
2018-Jun-16 16:29N 63°44' E 008°50'0 0.0
2018-Jun-16 15:59N 63°44' E 008°50'0 0.0
2018-Jun-16 15:30N 63°44' E 008°50'0 0.0
2018-Jun-16 15:00N 63°44' E 008°50'0 0.0
2018-Jun-16 14:30N 63°44' E 008°50'0 0.0
2018-Jun-16 13:58N 63°44' E 008°50'0 0.0
2018-Jun-16 13:30N 63°44' E 008°50'0 0.0
2018-Jun-16 13:00N 63°44' E 008°50'0 0.0
2018-Jun-16 12:30N 63°44' E 008°50'0 0.0
2018-Jun-16 12:00N 63°44' E 008°50'0 0.0
2018-Jun-16 11:30N 63°44' E 008°50'0 0.0
2018-Jun-16 11:00N 63°44' E 008°50'0 0.0
2018-Jun-16 10:30N 63°44' E 008°50'0 0.0
2018-Jun-16 10:00N 63°44' E 008°50'0 0.0
2018-Jun-16 09:30N 63°44' E 008°50'0 0.0
2018-Jun-16 09:00N 63°44' E 008°50'0 0.0
2018-Jun-16 08:30N 63°44' E 008°50'0 0.0
2018-Jun-16 08:00N 63°44' E 008°50'0 0.0
2018-Jun-16 07:30N 63°44' E 008°50'0 0.0
2018-Jun-16 07:00N 63°44' E 008°50'0 0.0
2018-Jun-16 06:30N 63°44' E 008°50'0 0.0
2018-Jun-16 06:00N 63°44' E 008°50'0 0.0
2018-Jun-16 05:30N 63°44' E 008°50'0 0.0
2018-Jun-16 04:59N 63°44' E 008°50'0 0.0
2018-Jun-16 04:30N 63°44' E 008°50'0 0.0
2018-Jun-16 03:59N 63°44' E 008°50'0 0.0
2018-Jun-16 03:30N 63°44' E 008°50'0 0.0
2018-Jun-16 03:00N 63°44' E 008°50'0 0.0
2018-Jun-16 02:30N 63°44' E 008°50'0 0.0
2018-Jun-16 02:00N 63°44' E 008°50'0 0.0
2018-Jun-16 01:30N 63°44' E 008°50'0 0.0
2018-Jun-16 01:00N 63°44' E 008°50'0 0.0
2018-Jun-16 00:30N 63°44' E 008°50'0 0.0
2018-Jun-16 00:00N 63°44' E 008°50'0 0.0
2018-Jun-15 23:30N 63°44' E 008°50'0 0.0
2018-Jun-15 23:00N 63°44' E 008°50'0 0.0
2018-Jun-15 22:30N 63°44' E 008°50'0 0.0
2018-Jun-15 21:59N 63°44' E 008°50'0 0.0
2018-Jun-15 21:30N 63°44' E 008°50'0 0.0
2018-Jun-15 20:59N 63°44' E 008°50'0 0.0
2018-Jun-15 20:30N 63°44' E 008°50'0 0.0
2018-Jun-15 20:00N 63°44' E 008°50'0 0.0
2018-Jun-15 19:30N 63°44' E 008°50'0 0.0
2018-Jun-15 19:00N 63°44' E 008°50'0 0.0
2018-Jun-15 18:30N 63°44' E 008°50'0 0.0
2018-Jun-15 17:59N 63°44' E 008°50'0 0.0
2018-Jun-15 17:30N 63°44' E 008°50'0 0.0
2018-Jun-15 16:59N 63°44' E 008°50'0 0.0
2018-Jun-15 16:30N 63°44' E 008°50'0 0.0
2018-Jun-15 16:00N 63°44' E 008°50'0 0.0
2018-Jun-15 15:30N 63°44' E 008°50'0 0.0
2018-Jun-15 15:00N 63°44' E 008°50'0 0.0
2018-Jun-15 14:30N 63°44' E 008°50'0 0.0
2018-Jun-15 14:00N 63°44' E 008°50'0 0.0
2018-Jun-15 13:30N 63°44' E 008°50'0 0.0
2018-Jun-15 12:59N 63°44' E 008°50'0 0.0
2018-Jun-15 12:30N 63°44' E 008°50'0 0.0
2018-Jun-15 12:00N 63°44' E 008°50'0 0.0
2018-Jun-15 11:30N 63°44' E 008°50'0 0.0
2018-Jun-15 11:00N 63°44' E 008°50'0 0.0
2018-Jun-15 10:30N 63°44' E 008°50'0 0.0
2018-Jun-15 10:00N 63°44' E 008°50'0 0.0
2018-Jun-15 09:30N 63°44' E 008°50'0 0.0
2018-Jun-15 09:00N 63°44' E 008°50'0 0.0
2018-Jun-15 08:30N 63°44' E 008°50'0 0.0
2018-Jun-15 08:00N 63°44' E 008°50'  

Dump ship's entire track history